createdAt,value
2022-11-29T00:00:54.264Z,164.60
2022-11-29T00:01:55.266Z,197.90
2022-11-29T00:02:56.271Z,180.10
2022-11-29T00:03:56.681Z,177.10
2022-11-29T00:04:57.533Z,176.60
2022-11-29T00:05:58.394Z,204.50
2022-11-29T00:06:59.244Z,198.20
2022-11-29T00:08:00.096Z,199.10
2022-11-29T00:09:00.957Z,180.40
2022-11-29T00:10:01.836Z,189.00
2022-11-29T00:11:02.664Z,193.60
2022-11-29T00:12:03.517Z,191.60
2022-11-29T00:13:04.373Z,191.30
2022-11-29T00:14:05.248Z,203.00
2022-11-29T00:15:06.022Z,196.40
2022-11-29T00:16:06.875Z,199.80
2022-11-29T00:17:07.729Z,182.70
2022-11-29T00:18:08.579Z,191.80
2022-11-29T00:19:09.450Z,197.20
2022-11-29T00:20:10.302Z,187.20
2022-11-29T00:21:11.171Z,202.00
2022-11-29T00:22:12.024Z,159.70
2022-11-29T00:23:12.874Z,174.80
2022-11-29T00:24:13.736Z,190.20
2022-11-29T00:25:14.610Z,183.60
2022-11-29T00:26:15.464Z,193.90
2022-11-29T00:27:16.338Z,189.00
2022-11-29T00:28:17.191Z,177.00
2022-11-29T00:29:18.128Z,195.00
2022-11-29T00:30:18.902Z,194.20
2022-11-29T00:31:19.745Z,187.20
2022-11-29T00:32:20.595Z,183.40
2022-11-29T00:33:21.446Z,166.50
2022-11-29T00:34:22.309Z,172.40
2022-11-29T00:35:23.161Z,181.10
2022-11-29T00:36:24.015Z,168.70
2022-11-29T00:37:24.869Z,179.50
2022-11-29T00:38:25.724Z,168.80
2022-11-29T00:39:26.600Z,192.50
2022-11-29T00:40:27.509Z,189.70
2022-11-29T00:41:28.305Z,199.30
2022-11-29T00:42:29.157Z,180.00
2022-11-29T00:43:30.009Z,217.60
2022-11-29T00:44:31.131Z,179.00
2022-11-29T00:45:31.435Z,179.40
2022-11-29T00:46:32.288Z,158.20
2022-11-29T00:47:33.145Z,161.10
2022-11-29T00:48:33.993Z,162.90
2022-11-29T00:49:35.104Z,181.60
2022-11-29T00:50:35.455Z,173.80
2022-11-29T00:51:36.307Z,178.00
2022-11-29T00:52:37.158Z,165.90
2022-11-29T00:53:38.009Z,176.20
2022-11-29T00:54:38.871Z,179.20
2022-11-29T00:55:39.741Z,179.40
2022-11-29T00:56:40.601Z,159.10
2022-11-29T00:57:41.451Z,172.10
2022-11-29T00:58:42.305Z,169.70
2022-11-29T00:59:43.183Z,149.40
2022-11-29T01:00:43.957Z,156.10
2022-11-29T01:01:44.877Z,169.30
2022-11-29T01:02:45.735Z,157.40
2022-11-29T01:03:46.548Z,173.10
2022-11-29T01:04:47.569Z,181.60
2022-11-29T01:05:47.975Z,160.60
2022-11-29T01:06:48.823Z,172.70
2022-11-29T01:07:49.765Z,164.90
2022-11-29T01:08:50.593Z,163.00
2022-11-29T01:09:51.479Z,171.70
2022-11-29T01:10:52.359Z,3.20
2022-11-29T01:11:53.191Z,0.10
2022-11-29T01:12:54.040Z,165.30
2022-11-29T01:13:54.893Z,185.80
2022-11-29T01:14:55.772Z,176.50
2022-11-29T01:15:56.588Z,180.20
2022-11-29T01:16:57.453Z,174.20
2022-11-29T01:17:58.291Z,170.70
2022-11-29T01:18:59.143Z,169.60
2022-11-29T01:20:00.005Z,188.70
2022-11-29T01:21:00.869Z,176.50
2022-11-29T01:22:01.736Z,180.80
2022-11-29T01:23:02.597Z,180.80
2022-11-29T01:24:03.449Z,170.90
2022-11-29T01:25:04.313Z,172.60
2022-11-29T01:26:05.189Z,164.60
2022-11-29T01:27:06.017Z,198.80
2022-11-29T01:28:06.871Z,168.00
2022-11-29T01:29:07.722Z,161.60
2022-11-29T01:30:08.603Z,163.30
2022-11-29T01:31:09.420Z,166.80
2022-11-29T01:32:10.232Z,176.80
2022-11-29T01:33:11.082Z,167.00
2022-11-29T01:34:11.933Z,149.00
2022-11-29T01:35:12.799Z,139.10
2022-11-29T01:36:13.653Z,156.60
2022-11-29T01:37:14.504Z,146.40
2022-11-29T01:38:15.355Z,170.30
2022-11-29T01:39:16.211Z,135.00
2022-11-29T01:40:17.072Z,128.10
2022-11-29T01:41:17.946Z,127.80
2022-11-29T01:42:18.784Z,137.50
2022-11-29T01:43:19.630Z,156.40
2022-11-29T01:44:20.481Z,148.40
2022-11-29T01:45:21.377Z,159.10
2022-11-29T01:46:22.248Z,156.50
2022-11-29T01:47:23.067Z,153.20
2022-11-29T01:48:23.916Z,161.80
2022-11-29T01:49:24.775Z,164.00
2022-11-29T01:50:25.647Z,155.40
2022-11-29T01:51:26.512Z,149.50
2022-11-29T01:52:27.387Z,139.10
2022-11-29T01:53:28.238Z,145.70
2022-11-29T01:54:29.092Z,132.40
2022-11-29T01:55:30.020Z,60.60
2022-11-29T01:56:30.524Z,117.00
2022-11-29T01:57:31.355Z,128.10
2022-11-29T01:58:32.208Z,131.20
2022-11-29T01:59:33.058Z,66.30
2022-11-29T02:00:34.074Z,110.50
2022-11-29T02:01:34.894Z,119.30
2022-11-29T02:02:35.738Z,47.90
2022-11-29T02:03:36.544Z,122.60
2022-11-29T02:04:37.395Z,129.30
2022-11-29T02:05:38.257Z,139.50
2022-11-29T02:06:39.107Z,118.70
2022-11-29T02:07:40.031Z,117.80
2022-11-29T02:08:40.831Z,113.70
2022-11-29T02:09:41.691Z,114.40
2022-11-29T02:10:42.552Z,107.20
2022-11-29T02:11:43.428Z,100.50
2022-11-29T02:12:44.255Z,108.50
2022-11-29T02:13:45.105Z,118.30
2022-11-29T02:14:46.281Z,108.00
2022-11-29T02:15:46.929Z,99.70
2022-11-29T02:16:47.721Z,104.00
2022-11-29T02:17:48.014Z,103.20
2022-11-29T02:18:48.896Z,102.30
2022-11-29T02:19:49.782Z,102.60
2022-11-29T02:20:51.089Z,114.10
2022-11-29T02:21:51.440Z,101.70
2022-11-29T02:22:52.294Z,105.70
2022-11-29T02:23:53.144Z,100.70
2022-11-29T02:24:53.995Z,100.60
2022-11-29T02:25:54.859Z,111.60
2022-11-29T02:26:55.725Z,102.80
2022-11-29T02:27:56.560Z,113.00
2022-11-29T02:28:57.414Z,112.40
2022-11-29T02:29:58.270Z,118.90
2022-11-29T02:30:59.235Z,112.70
2022-11-29T02:32:00.025Z,117.00
2022-11-29T02:33:00.889Z,122.40
2022-11-29T02:34:01.743Z,111.50
2022-11-29T02:35:02.609Z,106.60
2022-11-29T02:36:03.471Z,111.10
2022-11-29T02:37:10.067Z,122.50
2022-11-29T02:38:06.086Z,115.30
2022-11-29T02:39:05.941Z,183.70
2022-11-29T02:40:06.794Z,147.90
2022-11-29T02:41:07.653Z,143.10
2022-11-29T02:42:08.531Z,130.50
2022-11-29T02:43:09.383Z,133.00
2022-11-29T02:44:10.237Z,147.10
2022-11-29T02:45:11.087Z,152.30
2022-11-29T02:46:12.111Z,148.00
2022-11-29T02:47:12.457Z,137.80
2022-11-29T02:48:13.309Z,140.70
2022-11-29T02:49:14.164Z,133.90
2022-11-29T02:50:15.024Z,142.30
2022-11-29T02:51:15.887Z,134.50
2022-11-29T02:52:16.738Z,144.30
2022-11-29T02:53:17.591Z,149.30
2022-11-29T02:54:18.457Z,307.50
2022-11-29T02:55:19.297Z,126.40
2022-11-29T02:56:20.159Z,151.40
2022-11-29T02:57:21.071Z,161.60
2022-11-29T02:58:21.861Z,181.80
2022-11-29T02:59:22.716Z,145.50
2022-11-29T03:00:23.567Z,169.70
2022-11-29T03:01:24.660Z,144.80
2022-11-29T03:02:24.983Z,153.60
2022-11-29T03:03:25.829Z,139.00
2022-11-29T03:04:26.681Z,148.90
2022-11-29T03:05:27.535Z,141.80
2022-11-29T03:06:28.583Z,139.00
2022-11-29T03:07:28.973Z,153.20
2022-11-29T03:08:29.790Z,154.90
2022-11-29T03:09:30.648Z,143.00
2022-11-29T03:10:31.498Z,146.80
2022-11-29T03:11:32.361Z,142.30
2022-11-29T03:12:33.233Z,129.00
2022-11-29T03:13:34.063Z,152.90
2022-11-29T03:14:34.914Z,1999.90
2022-11-29T03:15:35.798Z,1999.90
2022-11-29T03:16:41.440Z,1999.90
2022-11-29T03:17:38.415Z,1999.90
2022-11-29T03:18:38.287Z,1999.90
2022-11-29T03:19:39.141Z,1999.90
2022-11-29T03:20:39.997Z,178.50
2022-11-29T03:21:40.857Z,150.30
2022-11-29T03:22:41.709Z,154.90
2022-11-29T03:23:42.570Z,145.40
2022-11-29T03:24:43.835Z,154.40
2022-11-29T03:25:44.305Z,151.40
2022-11-29T03:26:45.167Z,150.40
2022-11-29T03:27:46.041Z,142.20
2022-11-29T03:28:46.875Z,151.50
2022-11-29T03:29:47.723Z,148.60
2022-11-29T03:30:48.599Z,159.20
2022-11-29T03:31:49.455Z,148.70
2022-11-29T03:32:50.233Z,152.70
2022-11-29T03:33:51.088Z,165.80
2022-11-29T03:34:56.937Z,161.40
2022-11-29T03:35:53.701Z,159.20
2022-11-29T03:36:53.582Z,224.30
2022-11-29T03:37:54.445Z,161.00
2022-11-29T03:38:55.409Z,156.90
2022-11-29T03:39:56.260Z,177.10
2022-11-29T03:40:57.113Z,179.60
2022-11-29T03:41:57.978Z,154.00
2022-11-29T03:42:58.850Z,151.20
2022-11-29T03:43:59.680Z,164.50
2022-11-29T03:45:00.529Z,177.20
2022-11-29T03:46:01.471Z,172.10
2022-11-29T03:47:02.673Z,174.90
2022-11-29T03:48:02.939Z,171.80
2022-11-29T03:49:03.799Z,176.20
2022-11-29T03:50:04.735Z,189.80
2022-11-29T03:51:05.584Z,170.50
2022-11-29T03:52:06.586Z,180.80
2022-11-29T03:53:06.943Z,179.20
2022-11-29T03:54:07.797Z,179.90
2022-11-29T03:55:08.676Z,188.60
2022-11-29T03:56:09.523Z,178.10
2022-11-29T03:57:10.581Z,164.60
2022-11-29T03:58:10.970Z,633.00
2022-11-29T03:59:11.795Z,871.10
2022-11-29T04:00:12.649Z,864.70
2022-11-29T04:01:13.548Z,888.70
2022-11-29T04:02:14.454Z,877.80
2022-11-29T04:03:15.282Z,881.30
2022-11-29T04:04:16.136Z,836.70
2022-11-29T04:05:16.987Z,797.60
2022-11-29T04:06:17.839Z,429.10
2022-11-29T04:07:18.779Z,130.10
2022-11-29T04:08:19.584Z,126.60
2022-11-29T04:09:20.460Z,121.10
2022-11-29T04:10:21.296Z,124.50
2022-11-29T04:11:22.187Z,131.40
2022-11-29T04:12:23.050Z,124.50
2022-11-29T04:13:23.923Z,143.70
2022-11-29T04:14:24.755Z,157.30
2022-11-29T04:15:25.605Z,137.80
2022-11-29T04:16:26.458Z,152.80
2022-11-29T04:17:27.350Z,99.00
2022-11-29T04:18:28.114Z,147.80
2022-11-29T04:19:28.965Z,142.60
2022-11-29T04:20:29.827Z,147.00
2022-11-29T04:21:30.676Z,149.20
2022-11-29T04:22:31.546Z,143.50
2022-11-29T04:23:32.398Z,156.20
2022-11-29T04:24:33.252Z,151.20
2022-11-29T04:25:34.105Z,156.70
2022-11-29T04:26:35.393Z,171.90
2022-11-29T04:27:36.086Z,154.00
2022-11-29T04:28:36.457Z,160.50
2022-11-29T04:29:37.292Z,206.90
2022-11-29T04:30:38.145Z,185.40
2022-11-29T04:31:39.002Z,197.10
2022-11-29T04:32:39.992Z,178.80
2022-11-29T04:33:40.775Z,198.00
2022-11-29T04:34:41.953Z,167.70
2022-11-29T04:35:42.459Z,179.10
2022-11-29T04:36:43.309Z,181.80
2022-11-29T04:37:44.172Z,181.40
2022-11-29T04:38:45.024Z,193.30
2022-11-29T04:39:45.890Z,180.00
2022-11-29T04:40:46.751Z,172.50
2022-11-29T04:41:47.596Z,168.90
2022-11-29T04:42:48.458Z,170.10
2022-11-29T04:43:49.329Z,162.10
2022-11-29T04:44:50.165Z,167.10
2022-11-29T04:45:51.028Z,166.50
2022-11-29T04:46:51.878Z,173.80
2022-11-29T04:47:53.102Z,188.40
2022-11-29T04:48:53.386Z,174.50
2022-11-29T04:49:54.245Z,192.90
2022-11-29T04:50:55.094Z,166.20
2022-11-29T04:51:55.947Z,161.10
2022-11-29T04:52:56.818Z,163.20
2022-11-29T04:53:57.670Z,177.10
2022-11-29T04:54:58.528Z,165.30
2022-11-29T04:55:59.379Z,153.00
2022-11-29T04:57:00.246Z,182.60
2022-11-29T04:58:01.103Z,199.90
2022-11-29T04:59:01.979Z,207.80
2022-11-29T05:00:02.809Z,186.40
2022-11-29T05:01:03.664Z,184.20
2022-11-29T05:02:04.552Z,180.10
2022-11-29T05:03:05.637Z,251.60
2022-11-29T05:04:05.933Z,154.40
2022-11-29T05:05:06.789Z,164.30
2022-11-29T05:06:07.642Z,162.30
2022-11-29T05:07:08.494Z,178.60
2022-11-29T05:08:09.354Z,172.20
2022-11-29T05:09:10.207Z,160.70
2022-11-29T05:10:11.080Z,163.50
2022-11-29T05:11:11.933Z,171.20
2022-11-29T05:12:12.796Z,175.00
2022-11-29T05:13:13.658Z,176.60
2022-11-29T05:14:14.534Z,181.00
2022-11-29T05:15:15.364Z,179.20
2022-11-29T05:16:16.250Z,193.60
2022-11-29T05:17:17.067Z,160.60
2022-11-29T05:18:17.945Z,159.90
2022-11-29T05:19:18.730Z,170.00
2022-11-29T05:20:19.583Z,169.30
2022-11-29T05:21:20.437Z,163.80
2022-11-29T05:22:21.290Z,170.90
2022-11-29T05:23:22.155Z,178.30
2022-11-29T05:24:23.010Z,173.70
2022-11-29T05:25:23.875Z,147.60
2022-11-29T05:26:24.727Z,151.60
2022-11-29T05:27:25.579Z,152.50
2022-11-29T05:28:26.440Z,161.30
2022-11-29T05:29:27.329Z,162.50
2022-11-29T05:30:28.166Z,153.90
2022-11-29T05:31:29.066Z,158.30
2022-11-29T05:32:29.891Z,156.30
2022-11-29T05:33:30.770Z,157.10
2022-11-29T05:34:34.898Z,143.80
2022-11-29T05:35:32.457Z,209.50
2022-11-29T05:36:33.309Z,141.50
2022-11-29T05:37:34.162Z,135.40
2022-11-29T05:38:35.024Z,140.60
2022-11-29T05:39:35.876Z,143.00
2022-11-29T05:40:36.727Z,133.40
2022-11-29T05:41:37.578Z,123.30
2022-11-29T05:42:38.429Z,161.50
2022-11-29T05:43:39.292Z,160.60
2022-11-29T05:44:40.165Z,152.40
2022-11-29T05:45:40.998Z,142.30
2022-11-29T05:46:41.859Z,157.90
2022-11-29T05:47:42.697Z,163.60
2022-11-29T05:48:43.588Z,166.60
2022-11-29T05:49:44.385Z,146.00
2022-11-29T05:50:45.236Z,152.60
2022-11-29T05:51:46.098Z,145.60
2022-11-29T05:52:46.947Z,149.90
2022-11-29T05:53:48.067Z,146.00
2022-11-29T05:54:48.420Z,152.90
2022-11-29T05:55:49.272Z,163.90
2022-11-29T05:56:50.124Z,172.80
2022-11-29T05:57:50.978Z,170.00
2022-11-29T05:58:51.841Z,166.10
2022-11-29T05:59:52.710Z,150.10
2022-11-29T06:00:53.551Z,161.20
2022-11-29T06:01:54.502Z,151.50
2022-11-29T06:02:55.383Z,163.80
2022-11-29T06:03:56.208Z,165.00
2022-11-29T06:04:56.977Z,172.20
2022-11-29T06:05:57.833Z,181.70
2022-11-29T06:06:58.685Z,181.30
2022-11-29T06:07:59.623Z,182.50
2022-11-29T06:09:00.566Z,180.10
2022-11-29T06:10:01.990Z,184.40
2022-11-29T06:11:01.506Z,190.70
2022-11-29T06:12:02.359Z,174.50
2022-11-29T06:13:03.209Z,173.10
2022-11-29T06:14:04.565Z,166.00
2022-11-29T06:15:04.934Z,170.10
2022-11-29T06:16:05.790Z,174.60
2022-11-29T06:17:06.620Z,185.60
2022-11-29T06:18:07.471Z,174.20
2022-11-29T06:19:08.691Z,185.00
2022-11-29T06:20:08.959Z,180.70
2022-11-29T06:21:09.810Z,168.60
2022-11-29T06:22:10.662Z,198.70
2022-11-29T06:23:11.512Z,190.30
2022-11-29T06:24:12.381Z,184.80
2022-11-29T06:25:13.227Z,175.60
2022-11-29T06:26:14.080Z,175.60
2022-11-29T06:27:14.932Z,183.20
2022-11-29T06:28:15.782Z,171.10
2022-11-29T06:29:16.643Z,177.10
2022-11-29T06:30:17.519Z,159.60
2022-11-29T06:31:18.385Z,173.80
2022-11-29T06:32:19.211Z,186.90
2022-11-29T06:33:20.080Z,171.50
2022-11-29T06:34:23.999Z,187.70
2022-11-29T06:35:22.811Z,178.00
2022-11-29T06:36:22.666Z,178.50
2022-11-29T06:37:23.519Z,165.60
2022-11-29T06:38:24.379Z,173.10
2022-11-29T06:39:25.243Z,175.80
2022-11-29T06:40:26.101Z,170.00
2022-11-29T06:41:26.949Z,174.10
2022-11-29T06:42:27.809Z,172.80
2022-11-29T06:43:28.659Z,164.70
2022-11-29T06:44:29.571Z,180.30
2022-11-29T06:45:30.443Z,163.20
2022-11-29T06:46:31.311Z,180.00
2022-11-29T06:47:32.129Z,161.10
2022-11-29T06:48:32.980Z,162.50
2022-11-29T06:49:34.096Z,151.10
2022-11-29T06:50:34.367Z,157.60
2022-11-29T06:51:35.220Z,162.30
2022-11-29T06:52:36.073Z,150.20
2022-11-29T06:53:36.929Z,166.20
2022-11-29T06:54:37.795Z,158.50
2022-11-29T06:55:38.646Z,176.60
2022-11-29T06:56:40.883Z,177.50
2022-11-29T06:57:40.309Z,191.00
2022-11-29T06:58:41.162Z,163.00
2022-11-29T06:59:42.025Z,154.20
2022-11-29T07:00:42.979Z,137.00
2022-11-29T07:01:43.843Z,136.80
2022-11-29T07:02:44.662Z,141.80
2022-11-29T07:03:45.515Z,129.10
2022-11-29T07:04:46.861Z,146.70
2022-11-29T07:05:47.226Z,127.20
2022-11-29T07:06:48.049Z,125.70
2022-11-29T07:07:48.981Z,138.90
2022-11-29T07:08:49.773Z,129.50
2022-11-29T07:09:51.058Z,125.00
2022-11-29T07:10:51.417Z,122.00
2022-11-29T07:11:52.267Z,130.80
2022-11-29T07:12:53.127Z,201.70
2022-11-29T07:13:53.979Z,238.60
2022-11-29T07:14:55.058Z,246.70
2022-11-29T07:15:55.510Z,213.40
2022-11-29T07:16:57.599Z,228.80
2022-11-29T07:17:57.011Z,212.80
2022-11-29T07:18:57.863Z,186.90
2022-11-29T07:19:58.814Z,187.30
2022-11-29T07:20:59.577Z,164.60
2022-11-29T07:22:00.430Z,168.50
2022-11-29T07:23:01.285Z,157.70
2022-11-29T07:24:02.145Z,159.60
2022-11-29T07:25:03.057Z,185.90
2022-11-29T07:26:03.938Z,263.50
2022-11-29T07:27:04.792Z,285.40
2022-11-29T07:28:05.643Z,178.00
2022-11-29T07:29:06.496Z,151.10
2022-11-29T07:30:07.361Z,149.90
2022-11-29T07:31:08.256Z,162.50
2022-11-29T07:32:09.075Z,150.90
2022-11-29T07:33:09.932Z,159.50
2022-11-29T07:34:10.786Z,161.80
2022-11-29T07:35:11.666Z,155.70
2022-11-29T07:36:12.439Z,176.70
2022-11-29T07:37:13.294Z,164.80
2022-11-29T07:38:14.153Z,160.90
2022-11-29T07:39:15.009Z,159.70
2022-11-29T07:40:15.867Z,168.20
2022-11-29T07:41:16.720Z,159.20
2022-11-29T07:42:17.571Z,176.00
2022-11-29T07:43:18.449Z,170.90
2022-11-29T07:44:19.290Z,165.60
2022-11-29T07:45:20.577Z,171.00
2022-11-29T07:46:21.027Z,177.60
2022-11-29T07:47:21.856Z,147.30
2022-11-29T07:48:22.724Z,170.10
2022-11-29T07:49:23.580Z,155.50
2022-11-29T07:50:24.471Z,160.70
2022-11-29T07:51:25.247Z,163.40
2022-11-29T07:52:26.099Z,169.20
2022-11-29T07:53:27.524Z,172.90
2022-11-29T07:54:27.857Z,150.00
2022-11-29T07:55:29.053Z,186.70
2022-11-29T07:56:29.422Z,163.90
2022-11-29T07:57:30.307Z,174.60
2022-11-29T07:58:31.181Z,159.00
2022-11-29T07:59:31.990Z,165.90
2022-11-29T08:00:32.931Z,147.10
2022-11-29T08:01:33.777Z,159.40
2022-11-29T08:02:34.671Z,175.20
2022-11-29T08:03:35.531Z,173.80
2022-11-29T08:04:36.376Z,155.20
2022-11-29T08:05:37.266Z,153.40
2022-11-29T08:06:38.032Z,160.80
2022-11-29T08:07:38.915Z,140.40
2022-11-29T08:08:43.956Z,157.80
2022-11-29T08:09:40.685Z,225.30
2022-11-29T08:10:41.554Z,259.70
2022-11-29T08:11:42.400Z,312.40
2022-11-29T08:12:43.257Z,292.80
2022-11-29T08:13:44.109Z,270.20
2022-11-29T08:14:45.284Z,234.40
2022-11-29T08:15:45.800Z,218.60
2022-11-29T08:16:46.753Z,185.10
2022-11-29T08:17:47.540Z,180.00
2022-11-29T08:18:48.407Z,257.80
2022-11-29T08:19:49.244Z,360.80
2022-11-29T08:20:50.581Z,198.20
2022-11-29T08:21:50.845Z,176.50
2022-11-29T08:22:51.698Z,156.20
2022-11-29T08:23:52.555Z,151.30
2022-11-29T08:24:53.405Z,172.10
2022-11-29T08:25:54.553Z,167.50
2022-11-29T08:26:54.909Z,152.90
2022-11-29T08:27:55.759Z,154.00
2022-11-29T08:28:56.686Z,156.20
2022-11-29T08:29:57.567Z,142.90
2022-11-29T08:30:58.552Z,132.50
2022-11-29T08:31:59.519Z,135.60
2022-11-29T08:33:00.341Z,132.50
2022-11-29T08:34:01.187Z,141.70
2022-11-29T08:35:02.057Z,152.20
2022-11-29T08:36:02.925Z,121.20
2022-11-29T08:37:03.790Z,132.80
2022-11-29T08:38:04.641Z,147.60
2022-11-29T08:39:09.179Z,138.60
2022-11-29T08:40:06.401Z,144.70
2022-11-29T08:41:07.563Z,141.60
2022-11-29T08:42:07.922Z,134.50
2022-11-29T08:43:08.773Z,129.00
2022-11-29T08:44:09.629Z,127.90
2022-11-29T08:45:10.480Z,130.50
2022-11-29T08:46:17.961Z,116.80
2022-11-29T08:47:13.358Z,127.60
2022-11-29T08:48:13.189Z,114.00
2022-11-29T08:49:14.059Z,107.20
2022-11-29T08:50:14.915Z,116.60
2022-11-29T08:51:16.097Z,112.80
2022-11-29T08:52:16.368Z,115.70
2022-11-29T08:53:17.234Z,109.40
2022-11-29T08:54:18.089Z,101.80
2022-11-29T08:55:18.944Z,101.10
2022-11-29T08:58:22.075Z,107.50
2022-11-29T08:59:21.926Z,104.60
2022-11-29T09:00:22.883Z,92.30
2022-11-29T09:01:24.121Z,96.80
2022-11-29T09:02:24.563Z,106.20
2022-11-29T09:03:25.350Z,109.40
2022-11-29T09:04:26.213Z,110.40
2022-11-29T09:05:27.060Z,98.70
2022-11-29T09:06:27.940Z,108.00
2022-11-29T09:07:28.752Z,103.50
2022-11-29T09:08:29.577Z,113.80
2022-11-29T09:09:30.430Z,94.20
2022-11-29T09:10:31.289Z,97.10
2022-11-29T09:11:32.548Z,95.00
2022-11-29T09:12:32.918Z,87.50
2022-11-29T09:13:33.770Z,88.10
2022-11-29T09:14:34.622Z,92.20
2022-11-29T09:15:35.476Z,83.00
2022-11-29T09:16:36.611Z,92.80
2022-11-29T09:17:36.937Z,92.60
2022-11-29T09:18:37.793Z,84.00
2022-11-29T09:19:38.650Z,80.80
2022-11-29T09:20:39.511Z,75.40
2022-11-29T09:21:40.627Z,83.90
2022-11-29T09:22:40.901Z,89.70
2022-11-29T09:23:41.767Z,82.30
2022-11-29T09:24:42.980Z,97.80
2022-11-29T09:25:43.375Z,80.40
2022-11-29T09:26:44.237Z,87.50
2022-11-29T09:27:45.111Z,95.40
2022-11-29T09:28:45.977Z,89.60
2022-11-29T09:29:46.837Z,87.10
2022-11-29T09:30:47.688Z,98.20
2022-11-29T09:31:48.643Z,82.20
2022-11-29T09:32:49.492Z,89.60
2022-11-29T09:33:50.333Z,78.00
2022-11-29T09:34:51.186Z,73.30
2022-11-29T09:35:52.037Z,76.00
2022-11-29T09:36:53.063Z,64.80
2022-11-29T09:37:53.827Z,68.00
2022-11-29T09:38:54.679Z,85.90
2022-11-29T09:39:55.532Z,71.10
2022-11-29T09:40:56.386Z,70.50
2022-11-29T09:41:57.544Z,64.00
2022-11-29T09:42:57.895Z,72.70
2022-11-29T09:43:58.765Z,77.30
2022-11-29T09:44:59.618Z,73.60
2022-11-29T09:46:00.509Z,62.70
2022-11-29T09:47:01.359Z,65.40
2022-11-29T09:48:02.247Z,70.60
2022-11-29T09:49:03.069Z,70.60
2022-11-29T09:50:03.573Z,66.90
2022-11-29T09:51:04.425Z,66.30
2022-11-29T09:52:05.374Z,74.10
2022-11-29T09:53:06.156Z,67.20
2022-11-29T09:54:07.012Z,72.00
2022-11-29T09:55:07.873Z,73.70
2022-11-29T09:56:08.766Z,70.30
2022-11-29T09:57:11.011Z,71.20
2022-11-29T09:58:10.441Z,75.20
2022-11-29T09:59:11.365Z,78.00
2022-11-29T10:00:12.222Z,73.80
2022-11-29T10:01:13.130Z,76.10
2022-11-29T10:02:18.394Z,71.00
2022-11-29T10:03:15.733Z,76.90
2022-11-29T10:04:15.570Z,71.50
2022-11-29T10:05:16.424Z,65.00
2022-11-29T10:06:17.275Z,66.00
2022-11-29T10:07:18.204Z,71.70
2022-11-29T10:08:19.059Z,69.40
2022-11-29T10:09:19.913Z,81.00
2022-11-29T10:10:20.772Z,74.10
2022-11-29T10:11:21.670Z,67.10
2022-11-29T10:12:22.533Z,63.00
2022-11-29T10:13:23.386Z,73.30
2022-11-29T10:14:24.239Z,67.90
2022-11-29T10:15:25.095Z,71.70
2022-11-29T10:16:26.193Z,70.90
2022-11-29T10:17:26.547Z,75.40
2022-11-29T10:18:27.445Z,69.50
2022-11-29T10:19:28.285Z,70.10
2022-11-29T10:20:29.141Z,67.60
2022-11-29T10:21:30.006Z,72.70
2022-11-29T10:22:30.960Z,60.00
2022-11-29T10:23:31.720Z,77.80
2022-11-29T10:24:32.574Z,66.20
2022-11-29T10:25:33.427Z,69.40
2022-11-29T10:26:35.563Z,69.00
2022-11-29T10:27:35.040Z,69.90
2022-11-29T10:28:35.895Z,65.00
2022-11-29T10:29:36.772Z,74.80
2022-11-29T10:30:37.669Z,78.50
2022-11-29T10:31:38.478Z,79.50
2022-11-29T10:32:39.539Z,71.70
2022-11-29T10:33:39.916Z,81.00
2022-11-29T10:34:40.747Z,79.60
2022-11-29T10:35:41.605Z,71.40
2022-11-29T10:36:42.458Z,79.70
2022-11-29T10:37:52.224Z,72.70
2022-11-29T10:38:45.068Z,75.50
2022-11-29T10:39:44.925Z,68.70
2022-11-29T10:40:45.776Z,71.40
2022-11-29T10:41:46.638Z,74.70
2022-11-29T10:42:47.543Z,72.40
2022-11-29T10:43:48.396Z,78.40
2022-11-29T10:44:49.250Z,70.50
2022-11-29T10:45:50.378Z,82.70
2022-11-29T10:46:50.854Z,71.70
2022-11-29T10:47:51.717Z,78.60
2022-11-29T10:48:52.599Z,80.20
2022-11-29T10:49:53.435Z,71.70
2022-11-29T10:50:54.286Z,73.10
2022-11-29T10:51:55.146Z,74.70
2022-11-29T10:53:00.046Z,69.40
2022-11-29T10:53:56.528Z,75.60
2022-11-29T10:54:57.481Z,76.50
2022-11-29T10:55:58.262Z,73.40
2022-11-29T10:56:59.129Z,72.80
2022-11-29T10:58:00.035Z,83.90
2022-11-29T10:59:00.903Z,80.70
2022-11-29T11:00:01.783Z,73.40
2022-11-29T11:01:02.732Z,71.10
2022-11-29T11:02:03.562Z,81.00
2022-11-29T11:03:04.536Z,78.70
2022-11-29T11:04:05.445Z,66.70
2022-11-29T11:05:06.276Z,63.90
2022-11-29T11:06:07.177Z,64.90
2022-11-29T11:07:08.033Z,64.30
2022-11-29T11:08:08.921Z,93.90
2022-11-29T11:09:09.724Z,79.50
2022-11-29T11:10:10.577Z,70.60
2022-11-29T11:11:11.433Z,68.90
2022-11-29T11:12:12.287Z,91.20
2022-11-29T11:13:13.534Z,78.20
2022-11-29T11:14:13.887Z,74.40
2022-11-29T11:15:14.751Z,75.60
2022-11-29T11:16:15.731Z,69.50
2022-11-29T11:17:16.553Z,70.00
2022-11-29T11:18:17.540Z,81.20
2022-11-29T11:19:18.413Z,92.90
2022-11-29T11:20:19.242Z,73.90
2022-11-29T11:21:20.095Z,82.00
2022-11-29T11:22:20.954Z,79.50
2022-11-29T11:23:21.829Z,82.50
2022-11-29T11:24:22.616Z,78.50
2022-11-29T11:25:23.461Z,79.30
2022-11-29T11:26:24.314Z,78.60
2022-11-29T11:27:25.169Z,62.70
2022-11-29T11:28:26.039Z,65.50
2022-11-29T11:29:26.893Z,60.10
2022-11-29T11:30:27.890Z,67.70
2022-11-29T11:31:28.699Z,68.80
2022-11-29T11:32:29.564Z,76.70
2022-11-29T11:33:30.532Z,73.30
2022-11-29T11:34:31.414Z,88.00
2022-11-29T11:35:32.244Z,89.10
2022-11-29T11:36:33.108Z,66.40
2022-11-29T11:37:33.959Z,64.30
2022-11-29T11:38:35.147Z,66.70
2022-11-29T11:39:35.436Z,72.10
2022-11-29T11:40:36.318Z,66.50
2022-11-29T11:41:37.238Z,67.30
2022-11-29T11:42:38.086Z,74.00
2022-11-29T11:43:39.122Z,75.10
2022-11-29T11:44:47.765Z,70.90
2022-11-29T11:45:41.205Z,79.40
2022-11-29T11:46:41.108Z,74.40
2022-11-29T11:47:41.914Z,74.20
2022-11-29T11:48:43.031Z,73.50
2022-11-29T11:49:43.401Z,76.20
2022-11-29T11:50:44.241Z,74.70
2022-11-29T11:51:45.099Z,78.70
2022-11-29T11:52:50.326Z,78.10
2022-11-29T11:53:46.817Z,64.10
2022-11-29T11:54:47.588Z,75.70
2022-11-29T11:55:48.451Z,75.60
2022-11-29T11:56:49.300Z,72.30
2022-11-29T11:57:50.149Z,71.20
2022-11-29T11:58:51.010Z,71.70
2022-11-29T11:59:51.874Z,75.70
2022-11-29T12:01:08.103Z,68.70
2022-11-29T12:01:54.478Z,68.70
2022-11-29T12:02:54.439Z,70.00
2022-11-29T12:03:55.257Z,73.50
2022-11-29T12:04:56.155Z,73.50
2022-11-29T12:05:56.982Z,77.10
2022-11-29T12:06:57.811Z,73.00
2022-11-29T12:08:07.829Z,81.80
2022-11-29T12:09:00.654Z,63.50
2022-11-29T12:10:00.008Z,67.10
2022-11-29T12:11:06.871Z,70.60
2022-11-29T12:12:02.619Z,69.80
2022-11-29T12:13:02.482Z,61.90
2022-11-29T12:14:03.530Z,67.40
2022-11-29T12:15:03.915Z,73.50
2022-11-29T12:16:04.895Z,78.50
2022-11-29T12:17:05.280Z,74.80
2022-11-29T12:18:06.167Z,72.90
2022-11-29T12:19:07.025Z,80.40
2022-11-29T12:20:07.903Z,75.70
2022-11-29T12:21:08.753Z,80.40
2022-11-29T12:22:09.614Z,75.20
2022-11-29T12:23:10.479Z,74.40
2022-11-29T12:24:11.467Z,78.90
2022-11-29T12:25:12.249Z,80.50
2022-11-29T12:26:19.147Z,76.80
2022-11-29T12:27:14.974Z,72.70
2022-11-29T12:28:20.123Z,78.40
2022-11-29T12:29:17.027Z,76.10
2022-11-29T12:30:16.389Z,67.20
2022-11-29T12:31:17.278Z,75.70
2022-11-29T12:32:18.105Z,81.00
2022-11-29T12:33:18.966Z,79.10
2022-11-29T12:34:22.607Z,75.50
2022-11-29T12:35:20.705Z,87.30
2022-11-29T12:36:21.537Z,84.80
2022-11-29T12:37:22.396Z,94.60
2022-11-29T12:38:23.276Z,87.60
2022-11-29T12:39:24.254Z,83.20
2022-11-29T12:40:25.043Z,85.80
2022-11-29T12:41:25.903Z,78.20
2022-11-29T12:42:26.756Z,79.40
2022-11-29T12:43:27.623Z,78.50
2022-11-29T12:44:28.483Z,75.60
2022-11-29T12:45:29.340Z,93.40
2022-11-29T12:46:30.226Z,84.30
2022-11-29T12:47:38.377Z,80.50
2022-11-29T12:48:32.804Z,77.50